createdAt,value
2023-04-25T00:00:16.574Z,12.80
2023-04-25T00:02:43.656Z,12.80
2023-04-25T00:05:11.500Z,12.80
2023-04-25T00:07:38.446Z,12.80
2023-04-25T00:10:06.209Z,12.80
2023-04-25T00:12:34.605Z,12.80
2023-04-25T00:15:01.526Z,12.80
2023-04-25T00:17:28.579Z,12.80
2023-04-25T00:19:55.730Z,12.80
2023-04-25T00:22:23.048Z,12.70
2023-04-25T00:24:49.916Z,12.80
2023-04-25T00:27:16.884Z,12.80
2023-04-25T00:29:43.925Z,12.80
2023-04-25T00:32:10.967Z,12.80
2023-04-25T00:34:37.862Z,12.80
2023-04-25T00:37:04.754Z,12.80
2023-04-25T00:39:31.742Z,12.70
2023-04-25T00:41:59.455Z,12.70
2023-04-25T00:44:27.898Z,12.70
2023-04-25T00:46:55.691Z,12.60
2023-04-25T00:49:22.609Z,12.60
2023-04-25T00:51:49.651Z,12.60
2023-04-25T00:54:17.451Z,12.60
2023-04-25T00:56:46.303Z,12.70
2023-04-25T00:59:14.075Z,12.70
2023-04-25T01:01:42.750Z,12.70
2023-04-25T01:04:09.967Z,12.70
2023-04-25T01:06:37.118Z,12.60
2023-04-25T01:09:05.695Z,12.60
2023-04-25T01:11:32.725Z,12.60
2023-04-25T01:13:59.600Z,12.60
2023-04-25T01:16:26.564Z,12.60
2023-04-25T01:18:53.833Z,12.60
2023-04-25T01:21:21.740Z,12.70
2023-04-25T01:23:49.401Z,12.60
2023-04-25T01:26:17.127Z,12.60
2023-04-25T01:28:44.266Z,12.60
2023-04-25T01:31:12.378Z,12.60
2023-04-25T01:33:39.313Z,12.50
2023-04-25T01:36:06.703Z,12.50
2023-04-25T01:38:33.996Z,12.50
2023-04-25T01:41:00.976Z,12.50
2023-04-25T01:43:28.033Z,12.50
2023-04-25T01:45:55.401Z,12.50
2023-04-25T01:48:22.400Z,12.50
2023-04-25T01:50:49.388Z,12.40
2023-04-25T01:53:16.357Z,12.40
2023-04-25T01:55:43.258Z,12.40
2023-04-25T01:58:11.030Z,12.50
2023-04-25T02:00:39.900Z,12.40
2023-04-25T02:03:07.081Z,12.40
2023-04-25T02:05:38.046Z,12.40
2023-04-25T02:08:07.011Z,12.30
2023-04-25T02:10:35.070Z,12.40
2023-04-25T02:13:02.268Z,12.30
2023-04-25T02:15:29.243Z,12.30
2023-04-25T02:17:56.486Z,12.30
2023-04-25T02:20:25.302Z,12.30
2023-04-25T02:22:52.646Z,12.30
2023-04-25T02:25:21.116Z,12.40
2023-04-25T02:27:49.017Z,12.40
2023-04-25T02:30:16.630Z,12.40
2023-04-25T02:32:43.563Z,12.40
2023-04-25T02:35:10.807Z,12.40
2023-04-25T02:37:39.667Z,12.50
2023-04-25T02:40:07.615Z,12.40
2023-04-25T02:42:34.531Z,12.40
2023-04-25T02:45:01.662Z,12.40
2023-04-25T02:47:28.658Z,12.40
2023-04-25T02:49:55.740Z,12.40
2023-04-25T02:52:22.622Z,12.40
2023-04-25T02:54:49.773Z,12.40
2023-04-25T02:57:16.650Z,12.40
2023-04-25T02:59:43.521Z,12.40
2023-04-25T03:02:11.577Z,12.40
2023-04-25T03:04:38.700Z,12.40
2023-04-25T03:07:05.984Z,12.40
2023-04-25T03:09:32.884Z,12.40
2023-04-25T03:11:59.789Z,12.40
2023-04-25T03:14:26.691Z,12.40
2023-04-25T03:16:53.650Z,12.40
2023-04-25T03:19:21.477Z,12.40
2023-04-25T03:21:48.410Z,12.40
2023-04-25T03:24:15.350Z,12.40
2023-04-25T03:26:42.303Z,12.50
2023-04-25T03:29:09.505Z,12.40
2023-04-25T03:31:36.378Z,12.40
2023-04-25T03:34:03.285Z,12.40
2023-04-25T03:36:30.123Z,12.40
2023-04-25T03:38:57.072Z,12.40
2023-04-25T03:41:23.910Z,12.40
2023-04-25T03:43:51.092Z,12.40
2023-04-25T03:46:18.298Z,12.40
2023-04-25T03:48:45.258Z,12.40
2023-04-25T03:51:12.095Z,12.40
2023-04-25T03:53:38.972Z,12.40
2023-04-25T03:56:06.195Z,12.40
2023-04-25T03:58:33.115Z,12.40
2023-04-25T04:01:00.017Z,12.30
2023-04-25T04:03:27.021Z,12.40
2023-04-25T04:05:54.296Z,12.40
2023-04-25T04:08:21.242Z,12.40
2023-04-25T04:10:48.161Z,12.40
2023-04-25T04:13:15.038Z,12.30
2023-04-25T04:15:42.072Z,12.30
2023-04-25T04:18:09.084Z,12.30
2023-04-25T04:20:36.224Z,12.30
2023-04-25T04:23:03.190Z,12.30
2023-04-25T04:25:31.131Z,12.40
2023-04-25T04:27:58.460Z,12.40
2023-04-25T04:30:26.547Z,12.40
2023-04-25T04:32:53.712Z,12.30
2023-04-25T04:35:20.649Z,12.30
2023-04-25T04:37:47.511Z,12.30
2023-04-25T04:40:16.754Z,12.30
2023-04-25T04:42:44.607Z,12.30
2023-04-25T04:45:12.279Z,12.20
2023-04-25T04:47:40.683Z,12.20
2023-04-25T04:50:10.369Z,12.20
2023-04-25T04:52:37.927Z,12.20
2023-04-25T04:55:06.601Z,12.10
2023-04-25T04:57:34.022Z,12.10
2023-04-25T05:00:01.633Z,12.10
2023-04-25T05:02:29.122Z,12.10
2023-04-25T05:04:58.063Z,12.10
2023-04-25T05:07:24.987Z,12.10
2023-04-25T05:09:51.888Z,12.00
2023-04-25T05:12:18.796Z,12.00
2023-04-25T05:14:45.796Z,11.90
2023-04-25T05:17:12.737Z,11.90
2023-04-25T05:19:41.392Z,11.90
2023-04-25T05:22:08.690Z,11.90
2023-04-25T05:24:35.541Z,11.90
2023-04-25T05:27:02.418Z,11.90
2023-04-25T05:29:29.314Z,12.00
2023-04-25T05:31:57.368Z,12.00
2023-04-25T05:34:24.239Z,12.00
2023-04-25T05:36:51.315Z,12.00
2023-04-25T05:39:18.584Z,11.90
2023-04-25T05:41:45.572Z,11.90
2023-04-25T05:44:12.518Z,11.90
2023-04-25T05:46:39.521Z,11.90
2023-04-25T05:49:06.594Z,11.90
2023-04-25T05:51:33.519Z,11.80
2023-04-25T05:54:00.425Z,11.80
2023-04-25T05:56:27.393Z,11.80
2023-04-25T05:58:54.384Z,11.70
2023-04-25T06:01:21.657Z,11.70
2023-04-25T06:03:48.959Z,11.70
2023-04-25T06:06:16.078Z,11.60
2023-04-25T06:08:42.983Z,11.60
2023-04-25T06:11:09.887Z,11.60
2023-04-25T06:13:36.764Z,11.50
2023-04-25T06:16:03.853Z,11.50
2023-04-25T06:18:30.727Z,11.40
2023-04-25T06:20:57.781Z,11.30
2023-04-25T06:23:24.639Z,11.30
2023-04-25T06:25:51.540Z,11.30
2023-04-25T06:28:18.374Z,11.40
2023-04-25T06:30:45.356Z,11.60
2023-04-25T06:33:12.350Z,11.70
2023-04-25T06:35:39.334Z,11.70
2023-04-25T06:38:06.332Z,11.60
2023-04-25T06:40:33.225Z,11.60
2023-04-25T06:43:00.133Z,11.60
2023-04-25T06:45:27.047Z,11.60
2023-04-25T06:47:53.988Z,11.60
2023-04-25T06:50:20.907Z,11.60
2023-04-25T06:52:47.835Z,11.70
2023-04-25T06:55:14.666Z,11.80
2023-04-25T06:57:41.521Z,11.90
2023-04-25T07:00:11.988Z,12.00
2023-04-25T07:02:39.059Z,12.10
2023-04-25T07:05:06.330Z,12.20
2023-04-25T07:07:33.235Z,12.30
2023-04-25T07:10:00.181Z,12.40
2023-04-25T07:12:27.096Z,12.50
2023-04-25T07:14:54.058Z,12.60
2023-04-25T07:17:20.973Z,12.80
2023-04-25T07:19:47.857Z,12.90
2023-04-25T07:22:14.752Z,12.90
2023-04-25T07:24:41.627Z,13.10
2023-04-25T07:27:08.557Z,13.30
2023-04-25T07:29:38.117Z,13.50
2023-04-25T07:32:05.445Z,13.50
2023-04-25T07:34:33.169Z,13.60
2023-04-25T07:37:00.536Z,13.70
2023-04-25T07:39:27.983Z,13.90
2023-04-25T07:41:55.625Z,14.20
2023-04-25T07:44:22.981Z,14.40
2023-04-25T07:46:49.901Z,14.60
2023-04-25T07:49:16.994Z,14.70
2023-04-25T07:51:46.599Z,14.70
2023-04-25T07:54:17.038Z,14.70
2023-04-25T07:56:51.916Z,14.70
2023-04-25T07:59:20.373Z,14.50
2023-04-25T08:01:47.358Z,14.50
2023-04-25T08:04:14.537Z,14.40
2023-04-25T08:06:41.776Z,14.30
2023-04-25T08:09:10.550Z,14.30
2023-04-25T08:11:38.133Z,14.30
2023-04-25T08:14:05.003Z,14.30
2023-04-25T08:16:32.060Z,14.50
2023-04-25T08:19:00.136Z,14.70
2023-04-25T08:21:28.679Z,15.00
2023-04-25T08:23:57.662Z,15.20
2023-04-25T08:26:24.998Z,15.50
2023-04-25T08:28:53.023Z,15.70
2023-04-25T08:31:20.294Z,16.00
2023-04-25T08:33:47.507Z,16.30
2023-04-25T08:36:17.298Z,16.70
2023-04-25T08:38:48.650Z,17.40
2023-04-25T08:41:17.380Z,17.90
2023-04-25T08:43:47.539Z,17.80
2023-04-25T08:46:18.957Z,17.50
2023-04-25T08:48:47.099Z,17.40
2023-04-25T08:51:26.049Z,17.30
2023-04-25T08:53:54.147Z,17.30
2023-04-25T08:56:26.266Z,17.10
2023-04-25T08:58:53.418Z,17.10
2023-04-25T09:01:20.820Z,17.10
2023-04-25T09:03:48.638Z,17.20
2023-04-25T09:06:17.332Z,17.50
2023-04-25T09:08:44.332Z,17.40
2023-04-25T09:11:11.504Z,17.30
2023-04-25T09:13:38.487Z,17.40
2023-04-25T09:16:05.715Z,17.70
2023-04-25T09:18:37.451Z,17.80
2023-04-25T09:21:15.013Z,17.90
2023-04-25T09:23:45.990Z,17.90
2023-04-25T09:26:19.590Z,18.20
2023-04-25T09:28:47.238Z,18.60
2023-04-25T09:31:22.653Z,18.90
2023-04-25T09:33:50.683Z,18.70
2023-04-25T09:36:18.327Z,18.70
2023-04-25T09:38:46.831Z,18.60
2023-04-25T09:41:14.161Z,18.70
2023-04-25T09:43:46.121Z,19.50
2023-04-25T09:46:13.612Z,20.30
2023-04-25T09:48:40.694Z,19.90
2023-04-25T09:51:12.300Z,20.00
2023-04-25T09:53:44.210Z,19.90
2023-04-25T09:56:12.613Z,20.00
2023-04-25T09:58:41.468Z,19.90
2023-04-25T10:01:10.363Z,19.80
2023-04-25T10:03:41.597Z,19.80
2023-04-25T10:06:18.797Z,19.70
2023-04-25T10:08:46.884Z,19.50
2023-04-25T10:11:16.966Z,19.20
2023-04-25T10:13:44.844Z,19.10
2023-04-25T10:16:12.863Z,18.70
2023-04-25T10:18:39.794Z,18.50
2023-04-25T10:21:08.123Z,18.50
2023-04-25T10:23:37.266Z,18.60
2023-04-25T10:26:04.172Z,18.40
2023-04-25T10:28:50.999Z,18.10
2023-04-25T10:31:18.542Z,17.90
2023-04-25T10:33:45.624Z,17.70
2023-04-25T10:36:15.980Z,17.70
2023-04-25T10:38:47.056Z,17.60
2023-04-25T10:41:15.314Z,17.40
2023-04-25T10:43:49.253Z,17.20
2023-04-25T10:46:36.019Z,17.20
2023-04-25T10:49:04.165Z,17.20
2023-04-25T10:51:50.883Z,17.30
2023-04-25T10:54:21.195Z,17.30
2023-04-25T10:56:51.695Z,17.20
2023-04-25T10:59:20.411Z,17.20
2023-04-25T11:01:52.846Z,17.20
2023-04-25T11:04:35.730Z,17.10
2023-04-25T11:07:32.241Z,17.10
2023-04-25T11:10:02.109Z,17.20
2023-04-25T11:12:30.855Z,17.20
2023-04-25T11:15:08.716Z,17.10
2023-04-25T11:17:36.539Z,17.20
2023-04-25T11:20:08.494Z,17.40
2023-04-25T11:22:35.887Z,17.60
2023-04-25T11:25:10.380Z,17.70
2023-04-25T11:27:52.604Z,17.70
2023-04-25T11:30:20.902Z,17.80
2023-04-25T11:32:48.326Z,17.90
2023-04-25T11:35:16.247Z,18.00
2023-04-25T11:37:44.806Z,18.00
2023-04-25T11:40:12.862Z,18.10
2023-04-25T11:42:49.263Z,17.90
2023-04-25T11:45:16.535Z,17.60
2023-04-25T11:47:43.549Z,17.40
2023-04-25T11:50:11.481Z,17.20
2023-04-25T11:52:38.733Z,17.10
2023-04-25T11:55:09.122Z,17.10
2023-04-25T11:57:40.193Z,17.10
2023-04-25T12:00:19.263Z,17.20
2023-04-25T12:02:48.273Z,17.30
2023-04-25T12:07:49.119Z,17.30
2023-04-25T12:10:18.681Z,17.20
2023-04-25T12:12:47.817Z,17.20
2023-04-25T12:15:16.681Z,17.10
2023-04-25T12:17:47.988Z,16.90
2023-04-25T12:20:18.230Z,16.80
2023-04-25T12:22:48.515Z,16.70
2023-04-25T12:25:36.484Z,16.70
2023-04-25T12:28:16.182Z,16.80
2023-04-25T12:31:01.896Z,17.00
2023-04-25T12:33:37.113Z,17.10
2023-04-25T12:36:09.655Z,17.30
2023-04-25T12:38:41.651Z,17.40
2023-04-25T12:41:09.125Z,17.70
2023-04-25T12:43:36.145Z,17.70
2023-04-25T12:46:03.142Z,17.70
2023-04-25T12:48:30.005Z,17.80
2023-04-25T12:50:57.218Z,17.90
2023-04-25T12:53:27.522Z,18.10
2023-04-25T12:58:22.348Z,18.10
2023-04-25T13:00:49.546Z,18.00
2023-04-25T13:03:16.733Z,17.90
2023-04-25T13:05:43.820Z,17.90
2023-04-25T13:08:10.749Z,18.00
2023-04-25T13:10:39.508Z,18.50
2023-04-25T13:13:06.538Z,18.90
2023-04-25T13:15:33.674Z,19.00
2023-04-25T13:18:00.707Z,18.90
2023-04-25T13:20:27.820Z,18.80
2023-04-25T13:22:54.662Z,18.60
2023-04-25T13:25:22.925Z,18.30
2023-04-25T13:27:49.909Z,18.10
2023-04-25T13:30:16.862Z,17.70
2023-04-25T13:32:43.958Z,17.50
2023-04-25T13:35:14.810Z,17.40
2023-04-25T13:37:41.783Z,17.70
2023-04-25T13:40:11.259Z,17.70
2023-04-25T13:42:39.352Z,17.70
2023-04-25T13:45:07.230Z,17.70
2023-04-25T13:47:34.457Z,17.80
2023-04-25T13:50:03.694Z,17.70
2023-04-25T13:52:30.860Z,17.70
2023-04-25T13:54:57.735Z,17.70
2023-04-25T13:57:24.910Z,17.70
2023-04-25T13:59:52.216Z,17.60
2023-04-25T14:02:19.165Z,17.60
2023-04-25T14:04:46.333Z,17.60
2023-04-25T14:07:13.228Z,17.60
2023-04-25T14:09:40.110Z,17.70
2023-04-25T14:12:07.114Z,17.80
2023-04-25T14:14:34.167Z,17.80
2023-04-25T14:17:01.077Z,17.80
2023-04-25T14:19:28.764Z,17.90
2023-04-25T14:21:55.939Z,18.00
2023-04-25T14:24:22.910Z,18.00
2023-04-25T14:26:49.799Z,18.10
2023-04-25T14:29:16.705Z,18.10
2023-04-25T14:31:43.693Z,18.10
2023-04-25T14:34:10.667Z,17.90
2023-04-25T14:36:37.931Z,17.90
2023-04-25T14:39:06.381Z,17.90
2023-04-25T14:41:33.405Z,18.10
2023-04-25T14:44:00.392Z,18.30
2023-04-25T14:46:27.969Z,18.40
2023-04-25T14:48:56.925Z,18.40
2023-04-25T14:51:24.193Z,18.40
2023-04-25T14:53:52.265Z,18.50
2023-04-25T14:56:19.950Z,18.60
2023-04-25T14:58:47.287Z,18.50
2023-04-25T15:01:15.340Z,18.10
2023-04-25T15:03:42.903Z,17.60
2023-04-25T15:06:10.121Z,17.40
2023-04-25T15:08:37.265Z,17.30
2023-04-25T15:11:04.487Z,17.20
2023-04-25T15:13:32.003Z,17.10
2023-04-25T15:15:58.915Z,17.10
2023-04-25T15:18:25.991Z,17.10
2023-04-25T15:20:53.711Z,17.10
2023-04-25T15:23:22.464Z,17.20
2023-04-25T15:25:52.441Z,17.20
2023-04-25T15:28:19.968Z,17.10
2023-04-25T15:30:46.864Z,17.10
2023-04-25T15:33:14.584Z,17.00
2023-04-25T15:35:41.612Z,17.10
2023-04-25T15:38:11.132Z,17.00
2023-04-25T15:40:38.194Z,17.00
2023-04-25T15:43:05.073Z,16.80
2023-04-25T15:45:33.184Z,16.70
2023-04-25T15:48:00.173Z,16.70
2023-04-25T15:50:27.325Z,16.60
2023-04-25T15:52:54.611Z,16.50
2023-04-25T15:55:26.943Z,16.50
2023-04-25T15:57:54.038Z,16.50
2023-04-25T16:00:22.533Z,16.40
2023-04-25T16:02:49.715Z,16.40
2023-04-25T16:05:17.514Z,16.50
2023-04-25T16:07:45.907Z,16.50
2023-04-25T16:10:13.417Z,16.40
2023-04-25T16:12:41.182Z,16.30
2023-04-25T16:15:08.585Z,16.20
2023-04-25T16:17:35.710Z,16.20
2023-04-25T16:20:06.496Z,16.20
2023-04-25T16:22:33.453Z,16.10
2023-04-25T16:25:00.549Z,16.00
2023-04-25T16:27:27.494Z,15.90
2023-04-25T16:29:54.331Z,15.70
2023-04-25T16:32:21.277Z,15.60
2023-04-25T16:34:48.271Z,15.40
2023-04-25T16:37:15.174Z,15.30
2023-04-25T16:39:42.054Z,15.20
2023-04-25T16:42:08.933Z,15.10
2023-04-25T16:44:35.834Z,15.10
2023-04-25T16:47:02.989Z,15.00
2023-04-25T16:49:30.430Z,14.90
2023-04-25T16:51:57.456Z,14.90
2023-04-25T16:54:27.341Z,14.80
2023-04-25T16:56:54.475Z,14.70
2023-04-25T16:59:21.335Z,14.50
2023-04-25T17:01:48.981Z,14.50
2023-04-25T17:04:16.164Z,14.40
2023-04-25T17:06:43.316Z,14.40
2023-04-25T17:09:10.942Z,14.40
2023-04-25T17:11:38.412Z,14.30
2023-04-25T17:14:06.167Z,14.20
2023-04-25T17:16:37.672Z,14.10
2023-04-25T17:19:05.701Z,14.10
2023-04-25T17:21:33.503Z,14.00
2023-04-25T17:24:01.205Z,14.00
2023-04-25T17:26:28.304Z,13.90
2023-04-25T17:28:55.406Z,13.90
2023-04-25T17:31:24.716Z,13.80
2023-04-25T17:33:52.220Z,13.80
2023-04-25T17:36:20.404Z,13.70
2023-04-25T17:38:48.045Z,13.60
2023-04-25T17:41:15.643Z,13.60
2023-04-25T17:43:43.475Z,13.50
2023-04-25T17:46:10.869Z,13.50
2023-04-25T17:48:38.304Z,13.40
2023-04-25T17:51:06.922Z,13.40
2023-04-25T17:53:34.278Z,13.40
2023-04-25T17:56:01.344Z,13.30
2023-04-25T17:58:29.125Z,13.20
2023-04-25T18:00:56.718Z,13.20
2023-04-25T18:03:23.889Z,13.10
2023-04-25T18:05:51.718Z,13.10
2023-04-25T18:08:19.049Z,13.00
2023-04-25T18:10:46.114Z,13.00
2023-04-25T18:13:13.178Z,12.90
2023-04-25T18:15:40.874Z,12.80
2023-04-25T18:18:15.633Z,12.80
2023-04-25T18:20:43.843Z,12.80
2023-04-25T18:23:14.099Z,12.70
2023-04-25T18:25:43.978Z,12.70
2023-04-25T18:28:11.692Z,12.60
2023-04-25T18:30:38.718Z,12.60
2023-04-25T18:33:06.348Z,12.50
2023-04-25T18:35:33.611Z,12.40
2023-04-25T18:38:01.102Z,12.40
2023-04-25T18:40:28.492Z,12.30
2023-04-25T18:42:56.032Z,12.30
2023-04-25T18:45:23.196Z,12.30
2023-04-25T18:47:50.874Z,12.30
2023-04-25T18:50:23.797Z,12.20
2023-04-25T18:52:51.352Z,12.30
2023-04-25T18:55:19.733Z,12.30
2023-04-25T18:57:47.206Z,12.30
2023-04-25T19:00:15.706Z,12.30
2023-04-25T19:02:43.272Z,12.30
2023-04-25T19:05:11.325Z,12.30
2023-04-25T19:07:39.465Z,12.30
2023-04-25T19:10:08.814Z,12.30
2023-04-25T19:12:37.017Z,12.30
2023-04-25T19:15:04.782Z,12.30
2023-04-25T19:17:32.255Z,12.20
2023-04-25T19:19:59.816Z,12.20
2023-04-25T19:22:27.949Z,12.20
2023-04-25T19:25:03.039Z,12.10
2023-04-25T19:27:36.978Z,12.00
2023-04-25T19:30:08.667Z,12.00
2023-04-25T19:32:36.534Z,12.00
2023-04-25T19:35:04.782Z,12.00
2023-04-25T19:37:32.731Z,11.90
2023-04-25T19:40:03.476Z,11.90
2023-04-25T19:42:31.398Z,11.80
2023-04-25T19:45:00.196Z,11.70
2023-04-25T19:47:28.218Z,11.70
2023-04-25T19:49:56.832Z,11.70
2023-04-25T19:52:24.501Z,11.60
2023-04-25T19:54:52.539Z,11.50
2023-04-25T19:57:19.743Z,11.60
2023-04-25T19:59:48.536Z,11.50
2023-04-25T20:02:16.285Z,11.50
2023-04-25T20:04:43.577Z,11.40
2023-04-25T20:07:10.820Z,11.40
2023-04-25T20:09:38.871Z,11.40
2023-04-25T20:12:06.219Z,11.30
2023-04-25T20:14:33.378Z,11.30
2023-04-25T20:17:01.300Z,11.20
2023-04-25T20:19:32.879Z,11.20
2023-04-25T20:22:00.384Z,11.20
2023-04-25T20:24:27.278Z,11.20
2023-04-25T20:26:56.490Z,11.20
2023-04-25T20:29:26.347Z,11.10
2023-04-25T20:31:54.469Z,11.00
2023-04-25T20:34:22.601Z,10.90
2023-04-25T20:36:49.547Z,10.90
2023-04-25T20:39:17.394Z,10.80
2023-04-25T20:41:47.548Z,10.70
2023-04-25T20:44:17.090Z,10.70
2023-04-25T20:46:43.907Z,10.70
2023-04-25T20:49:10.775Z,10.70
2023-04-25T20:51:37.733Z,10.70
2023-04-25T20:54:04.860Z,10.70
2023-04-25T20:56:32.856Z,10.80
2023-04-25T20:58:59.782Z,10.80
2023-04-25T21:01:26.933Z,10.80
2023-04-25T21:03:54.142Z,10.90
2023-04-25T21:06:21.194Z,10.80
2023-04-25T21:08:48.125Z,10.80
2023-04-25T21:11:15.002Z,10.80
2023-04-25T21:13:41.944Z,10.80
2023-04-25T21:16:08.781Z,10.80
2023-04-25T21:18:35.877Z,10.80
2023-04-25T21:21:05.808Z,10.80
2023-04-25T21:23:32.999Z,10.80
2023-04-25T21:25:59.983Z,10.70
2023-04-25T21:28:27.315Z,10.70
2023-04-25T21:30:54.558Z,10.70
2023-04-25T21:33:21.466Z,10.70
2023-04-25T21:35:48.352Z,10.70
2023-04-25T21:38:15.719Z,10.60
2023-04-25T21:40:42.688Z,10.60
2023-04-25T21:43:09.599Z,10.60
2023-04-25T21:45:51.433Z,10.50
2023-04-25T21:48:23.359Z,10.60
2023-04-25T21:50:50.492Z,10.50
2023-04-25T21:53:17.360Z,10.50
2023-04-25T21:55:44.305Z,10.40
2023-04-25T21:58:11.191Z,10.50
2023-04-25T22:00:39.720Z,10.40
2023-04-25T22:03:06.815Z,10.30
2023-04-25T22:05:34.961Z,10.30
2023-04-25T22:08:03.530Z,10.30
2023-04-25T22:10:30.547Z,10.30
2023-04-25T22:12:58.457Z,10.30
2023-04-25T22:15:25.574Z,10.20
2023-04-25T22:17:55.459Z,10.20
2023-04-25T22:20:26.155Z,10.20
2023-04-25T22:22:54.737Z,10.20
2023-04-25T22:25:22.247Z,10.20
2023-04-25T22:27:49.456Z,10.20
2023-04-25T22:30:16.941Z,10.20
2023-04-25T22:32:44.048Z,10.10
2023-04-25T22:35:11.764Z,10.10
2023-04-25T22:37:40.784Z,10.10
2023-04-25T22:40:09.264Z,10.10
2023-04-25T22:42:40.447Z,10.20
2023-04-25T22:45:08.541Z,10.10
2023-04-25T22:47:37.234Z,10.10
2023-04-25T22:50:07.800Z,10.10
2023-04-25T22:52:35.000Z,10.10
2023-04-25T22:55:03.340Z,10.10
2023-04-25T22:57:30.603Z,10.10
2023-04-25T22:59:57.703Z,10.10
2023-04-25T23:02:25.985Z,10.10
2023-04-25T23:04:53.364Z,10.10
2023-04-25T23:07:20.956Z,10.10
2023-04-25T23:09:47.822Z,10.10
2023-04-25T23:12:18.855Z,10.10
2023-04-25T23:14:50.321Z,10.20
2023-04-25T23:17:17.199Z,10.20
2023-04-25T23:19:45.302Z,10.20
2023-04-25T23:22:12.623Z,10.30
2023-04-25T23:24:39.512Z,10.30
2023-04-25T23:27:06.877Z,10.30
2023-04-25T23:29:34.736Z,10.30
2023-04-25T23:32:01.762Z,10.30
2023-04-25T23:34:32.822Z,10.40
2023-04-25T23:37:01.520Z,10.40
2023-04-25T23:39:28.802Z,10.40
2023-04-25T23:41:56.396Z,10.40
2023-04-25T23:44:23.319Z,10.40
2023-04-25T23:46:50.617Z,10.40
2023-04-25T23:49:17.472Z,10.40
2023-04-25T23:51:44.400Z,10.40
2023-04-25T23:54:11.448Z,10.30
2023-04-25T23:56:38.357Z,10.30
2023-04-25T23:59:05.707Z,10.30
